sensor_id;sensor_type;location;lat;lon;timestamp;P1;durP1;ratioP1;P2;durP2;ratioP2
68653;SDS011;55636;51.108;13.622;2022-07-30T00:00:44;4.93;;;4.38;;
68653;SDS011;55636;51.108;13.622;2022-07-30T00:01:46;4.70;;;4.30;;
68653;SDS011;55636;51.108;13.622;2022-07-30T00:02:49;4.97;;;4.20;;
68653;SDS011;55636;51.108;13.622;2022-07-30T00:03:51;6.20;;;4.55;;
68653;SDS011;55636;51.108;13.622;2022-07-30T00:04:53;4.80;;;4.40;;
68653;SDS011;55636;51.108;13.622;2022-07-30T00:05:56;5.25;;;4.28;;
68653;SDS011;55636;51.108;13.622;2022-07-30T00:06:58;5.43;;;4.43;;
68653;SDS011;55636;51.108;13.622;2022-07-30T00:08:01;4.85;;;4.15;;
68653;SDS011;55636;51.108;13.622;2022-07-30T00:09:04;4.72;;;4.32;;
68653;SDS011;55636;51.108;13.622;2022-07-30T00:10:06;5.03;;;4.40;;
68653;SDS011;55636;51.108;13.622;2022-07-30T00:11:09;5.35;;;4.50;;
68653;SDS011;55636;51.108;13.622;2022-07-30T00:12:12;4.65;;;4.25;;
68653;SDS011;55636;51.108;13.622;2022-07-30T00:13:15;4.47;;;4.07;;
68653;SDS011;55636;51.108;13.622;2022-07-30T00:14:17;4.18;;;3.85;;
68653;SDS011;55636;51.108;13.622;2022-07-30T00:15:19;4.90;;;4.40;;
68653;SDS011;55636;51.108;13.622;2022-07-30T00:16:22;5.70;;;4.00;;
68653;SDS011;55636;51.108;13.622;2022-07-30T00:17:29;4.75;;;4.28;;
68653;SDS011;55636;51.108;13.622;2022-07-30T00:18:32;4.78;;;4.28;;
68653;SDS011;55636;51.108;13.622;2022-07-30T00:19:35;5.07;;;4.40;;
68653;SDS011;55636;51.108;13.622;2022-07-30T00:20:38;4.95;;;4.18;;
68653;SDS011;55636;51.108;13.622;2022-07-30T00:21:45;4.80;;;4.10;;
68653;SDS011;55636;51.108;13.622;2022-07-30T00:22:50;7.53;;;4.50;;
68653;SDS011;55636;51.108;13.622;2022-07-30T00:23:52;4.75;;;3.90;;
68653;SDS011;55636;51.108;13.622;2022-07-30T00:25:02;4.95;;;4.45;;
68653;SDS011;55636;51.108;13.622;2022-07-30T00:26:06;4.47;;;4.07;;
68653;SDS011;55636;51.108;13.622;2022-07-30T00:27:08;5.65;;;4.10;;
68653;SDS011;55636;51.108;13.622;2022-07-30T00:28:14;4.82;;;4.38;;
68653;SDS011;55636;51.108;13.622;2022-07-30T00:29:16;4.10;;;3.80;;
68653;SDS011;55636;51.108;13.622;2022-07-30T00:30:18;4.80;;;4.40;;
68653;SDS011;55636;51.108;13.622;2022-07-30T00:31:20;4.10;;;3.80;;
68653;SDS011;55636;51.108;13.622;2022-07-30T00:32:23;4.90;;;4.25;;
68653;SDS011;55636;51.108;13.622;2022-07-30T00:33:25;4.70;;;4.30;;
68653;SDS011;55636;51.108;13.622;2022-07-30T00:34:28;5.50;;;4.00;;
68653;SDS011;55636;51.108;13.622;2022-07-30T00:35:30;4.72;;;4.10;;
68653;SDS011;55636;51.108;13.622;2022-07-30T00:36:32;4.68;;;4.00;;
68653;SDS011;55636;51.108;13.622;2022-07-30T00:37:41;5.85;;;4.22;;
68653;SDS011;55636;51.108;13.622;2022-07-30T00:38:46;4.55;;;4.10;;
68653;SDS011;55636;51.108;13.622;2022-07-30T00:39:48;6.70;;;4.38;;
68653;SDS011;55636;51.108;13.622;2022-07-30T00:40:50;4.78;;;4.20;;
68653;SDS011;55636;51.108;13.622;2022-07-30T00:41:56;4.38;;;3.97;;
68653;SDS011;55636;51.108;13.622;2022-07-30T00:43:06;4.22;;;3.92;;
68653;SDS011;55636;51.108;13.622;2022-07-30T00:44:11;4.72;;;4.28;;
68653;SDS011;55636;51.108;13.622;2022-07-30T00:45:16;4.70;;;4.10;;
68653;SDS011;55636;51.108;13.622;2022-07-30T00:46:27;4.88;;;4.10;;
68653;SDS011;55636;51.108;13.622;2022-07-30T00:47:29;4.35;;;3.95;;
68653;SDS011;55636;51.108;13.622;2022-07-30T00:48:32;4.90;;;3.83;;
68653;SDS011;55636;51.108;13.622;2022-07-30T00:49:36;5.25;;;4.30;;
68653;SDS011;55636;51.108;13.622;2022-07-30T00:50:44;4.57;;;4.18;;
68653;SDS011;55636;51.108;13.622;2022-07-30T00:51:49;5.40;;;4.35;;
68653;SDS011;55636;51.108;13.622;2022-07-30T00:52:52;4.72;;;4.32;;
68653;SDS011;55636;51.108;13.622;2022-07-30T00:54:02;5.00;;;3.88;;
68653;SDS011;55636;51.108;13.622;2022-07-30T00:55:05;4.53;;;4.13;;
68653;SDS011;55636;51.108;13.622;2022-07-30T00:56:10;4.90;;;3.88;;
68653;SDS011;55636;51.108;13.622;2022-07-30T00:57:14;4.50;;;4.10;;
68653;SDS011;55636;51.108;13.622;2022-07-30T00:58:17;4.70;;;4.20;;
68653;SDS011;55636;51.108;13.622;2022-07-30T00:59:19;4.85;;;4.05;;
68653;SDS011;55636;51.108;13.622;2022-07-30T01:00:23;4.80;;;4.10;;
68653;SDS011;55636;51.108;13.622;2022-07-30T01:01:26;4.55;;;4.10;;
68653;SDS011;55636;51.108;13.622;2022-07-30T01:02:28;4.40;;;4.00;;
68653;SDS011;55636;51.108;13.622;2022-07-30T01:03:33;6.45;;;4.40;;
68653;SDS011;55636;51.108;13.622;2022-07-30T01:04:35;4.45;;;4.05;;
68653;SDS011;55636;51.108;13.622;2022-07-30T01:05:37;4.22;;;3.88;;
68653;SDS011;55636;51.108;13.622;2022-07-30T01:06:40;4.60;;;4.20;;
68653;SDS011;55636;51.108;13.622;2022-07-30T01:07:42;4.50;;;4.00;;
68653;SDS011;55636;51.108;13.622;2022-07-30T01:08:48;4.75;;;4.22;;
68653;SDS011;55636;51.108;13.622;2022-07-30T01:09:50;4.65;;;4.03;;
68653;SDS011;55636;51.108;13.622;2022-07-30T01:10:52;4.57;;;4.15;;
68653;SDS011;55636;51.108;13.622;2022-07-30T01:11:54;4.57;;;4.18;;
68653;SDS011;55636;51.108;13.622;2022-07-30T01:12:57;4.43;;;4.03;;
68653;SDS011;55636;51.108;13.622;2022-07-30T01:14:04;6.03;;;4.35;;
68653;SDS011;55636;51.108;13.622;2022-07-30T01:15:08;4.35;;;4.05;;
68653;SDS011;55636;51.108;13.622;2022-07-30T01:16:12;4.72;;;4.32;;
68653;SDS011;55636;51.108;13.622;2022-07-30T01:17:15;6.30;;;4.20;;
68653;SDS011;55636;51.108;13.622;2022-07-30T01:18:17;4.82;;;4.35;;
68653;SDS011;55636;51.108;13.622;2022-07-30T01:19:24;5.18;;;4.68;;
68653;SDS011;55636;51.108;13.622;2022-07-30T01:20:51;4.75;;;4.32;;
68653;SDS011;55636;51.108;13.622;2022-07-30T01:22:10;5.10;;;4.60;;
68653;SDS011;55636;51.108;13.622;2022-07-30T01:23:25;5.28;;;4.43;;
68653;SDS011;55636;51.108;13.622;2022-07-30T01:24:38;4.60;;;4.20;;
68653;SDS011;55636;51.108;13.622;2022-07-30T01:26:06;4.97;;;4.47;;
68653;SDS011;55636;51.108;13.622;2022-07-30T01:27:10;5.10;;;4.60;;
68653;SDS011;55636;51.108;13.622;2022-07-30T01:28:22;6.03;;;4.68;;
68653;SDS011;55636;51.108;13.622;2022-07-30T01:29:28;6.90;;;4.50;;
68653;SDS011;55636;51.108;13.622;2022-07-30T01:30:34;6.20;;;4.95;;
68653;SDS011;55636;51.108;13.622;2022-07-30T01:31:39;4.78;;;4.38;;
68653;SDS011;55636;51.108;13.622;2022-07-30T01:32:44;5.53;;;4.53;;
68653;SDS011;55636;51.108;13.622;2022-07-30T01:33:48;4.53;;;4.13;;
68653;SDS011;55636;51.108;13.622;2022-07-30T01:34:54;4.53;;;4.07;;
68653;SDS011;55636;51.108;13.622;2022-07-30T01:35:58;5.40;;;4.90;;
68653;SDS011;55636;51.108;13.622;2022-07-30T01:37:02;5.20;;;4.70;;
68653;SDS011;55636;51.108;13.622;2022-07-30T01:38:06;5.20;;;4.70;;
68653;SDS011;55636;51.108;13.622;2022-07-30T01:39:12;5.18;;;4.78;;
68653;SDS011;55636;51.108;13.622;2022-07-30T01:40:16;6.07;;;4.88;;
68653;SDS011;55636;51.108;13.622;2022-07-30T01:41:19;5.00;;;4.60;;
68653;SDS011;55636;51.108;13.622;2022-07-30T01:42:22;5.38;;;4.80;;
68653;SDS011;55636;51.108;13.622;2022-07-30T01:43:27;5.03;;;4.50;;
68653;SDS011;55636;51.108;13.622;2022-07-30T01:44:31;6.00;;;4.82;;
68653;SDS011;55636;51.108;13.622;2022-07-30T01:45:35;5.22;;;4.38;;
68653;SDS011;55636;51.108;13.622;2022-07-30T01:46:45;5.75;;;5.05;;
68653;SDS011;55636;51.108;13.622;2022-07-30T01:47:48;6.40;;;4.70;;
68653;SDS011;55636;51.108;13.622;2022-07-30T01:48:55;5.32;;;4.88;;
68653;SDS011;55636;51.108;13.622;2022-07-30T01:50:00;6.85;;;5.05;;
68653;SDS011;55636;51.108;13.622;2022-07-30T01:51:04;6.35;;;5.03;;
68653;SDS011;55636;51.108;13.622;2022-07-30T01:52:09;5.15;;;4.65;;
68653;SDS011;55636;51.108;13.622;2022-07-30T01:53:16;5.30;;;4.47;;
68653;SDS011;55636;51.108;13.622;2022-07-30T01:54:22;5.85;;;4.70;;
68653;SDS011;55636;51.108;13.622;2022-07-30T01:55:30;5.60;;;5.00;;
68653;SDS011;55636;51.108;13.622;2022-07-30T01:56:36;5.20;;;4.40;;
68653;SDS011;55636;51.108;13.622;2022-07-30T01:57:42;5.47;;;4.60;;
68653;SDS011;55636;51.108;13.622;2022-07-30T01:58:47;4.90;;;4.50;;
68653;SDS011;55636;51.108;13.622;2022-07-30T01:59:59;4.97;;;4.57;;
68653;SDS011;55636;51.108;13.622;2022-07-30T02:01:17;5.18;;;4.57;;
68653;SDS011;55636;51.108;13.622;2022-07-30T02:02:19;5.28;;;4.78;;
68653;SDS011;55636;51.108;13.622;2022-07-30T02:03:23;4.90;;;4.50;;
68653;SDS011;55636;51.108;13.622;2022-07-30T02:04:27;5.32;;;4.82;;
68653;SDS011;55636;51.108;13.622;2022-07-30T02:05:30;5.20;;;4.53;;
68653;SDS011;55636;51.108;13.622;2022-07-30T02:06:39;5.60;;;5.10;;
68653;SDS011;55636;51.108;13.622;2022-07-30T02:07:52;5.28;;;4.75;;
68653;SDS011;55636;51.108;13.622;2022-07-30T02:09:00;5.47;;;4.40;;
68653;SDS011;55636;51.108;13.622;2022-07-30T02:10:16;6.07;;;4.50;;
68653;SDS011;55636;51.108;13.622;2022-07-30T02:11:24;5.03;;;4.50;;
68653;SDS011;55636;51.108;13.622;2022-07-30T02:12:47;4.60;;;4.20;;
68653;SDS011;55636;51.108;13.622;2022-07-30T02:13:56;5.25;;;4.75;;
68653;SDS011;55636;51.108;13.622;2022-07-30T02:15:20;5.13;;;4.63;;
68653;SDS011;55636;51.108;13.622;2022-07-30T02:16:28;5.10;;;4.63;;
68653;SDS011;55636;51.108;13.622;2022-07-30T02:17:42;5.60;;;5.10;;
68653;SDS011;55636;51.108;13.622;2022-07-30T02:18:53;5.53;;;5.03;;
68653;SDS011;55636;51.108;13.622;2022-07-30T02:20:10;5.63;;;5.13;;
68653;SDS011;55636;51.108;13.622;2022-07-30T02:21:14;6.65;;;5.40;;
68653;SDS011;55636;51.108;13.622;2022-07-30T02:22:21;5.63;;;5.00;;
68653;SDS011;55636;51.108;13.622;2022-07-30T02:23:26;4.72;;;4.28;;
68653;SDS011;55636;51.108;13.622;2022-07-30T02:24:32;6.15;;;4.65;;
68653;SDS011;55636;51.108;13.622;2022-07-30T02:25:37;5.57;;;4.75;;
68653;SDS011;55636;51.108;13.622;2022-07-30T02:26:54;4.85;;;4.30;;
68653;SDS011;55636;51.108;13.622;2022-07-30T02:28:04;5.07;;;4.68;;
68653;SDS011;55636;51.108;13.622;2022-07-30T02:29:10;6.20;;;4.90;;
68653;SDS011;55636;51.108;13.622;2022-07-30T02:30:14;5.30;;;4.90;;
68653;SDS011;55636;51.108;13.622;2022-07-30T02:31:21;5.65;;;5.15;;
68653;SDS011;55636;51.108;13.622;2022-07-30T02:32:29;5.80;;;5.30;;
68653;SDS011;55636;51.108;13.622;2022-07-30T02:33:37;5.90;;;5.30;;
68653;SDS011;55636;51.108;13.622;2022-07-30T02:34:50;5.55;;;5.05;;
68653;SDS011;55636;51.108;13.622;2022-07-30T02:35:56;5.20;;;4.57;;
68653;SDS011;55636;51.108;13.622;2022-07-30T02:37:01;6.05;;;5.30;;
68653;SDS011;55636;51.108;13.622;2022-07-30T02:38:04;5.50;;;4.85;;
68653;SDS011;55636;51.108;13.622;2022-07-30T02:39:11;5.65;;;5.13;;
68653;SDS011;55636;51.108;13.622;2022-07-30T02:40:17;5.72;;;5.10;;
68653;SDS011;55636;51.108;13.622;2022-07-30T02:41:25;5.85;;;5.22;;
68653;SDS011;55636;51.108;13.622;2022-07-30T02:42:30;5.05;;;4.65;;
68653;SDS011;55636;51.108;13.622;2022-07-30T02:43:34;5.72;;;4.90;;
68653;SDS011;55636;51.108;13.622;2022-07-30T02:44:39;5.70;;;5.20;;
68653;SDS011;55636;51.108;13.622;2022-07-30T02:45:46;5.90;;;4.90;;
68653;SDS011;55636;51.108;13.622;2022-07-30T02:46:51;5.53;;;5.03;;
68653;SDS011;55636;51.108;13.622;2022-07-30T02:48:15;5.25;;;4.75;;
68653;SDS011;55636;51.108;13.622;2022-07-30T02:49:36;5.40;;;4.90;;
68653;SDS011;55636;51.108;13.622;2022-07-30T02:50:41;5.60;;;5.10;;
68653;SDS011;55636;51.108;13.622;2022-07-30T02:51:47;5.35;;;4.88;;
68653;SDS011;55636;51.108;13.622;2022-07-30T02:52:50;5.22;;;4.72;;
68653;SDS011;55636;51.108;13.622;2022-07-30T02:53:56;5.40;;;4.90;;
68653;SDS011;55636;51.108;13.622;2022-07-30T02:55:03;5.72;;;5.22;;
68653;SDS011;55636;51.108;13.622;2022-07-30T02:56:06;5.90;;;5.40;;
68653;SDS011;55636;51.108;13.622;2022-07-30T02:57:10;5.50;;;5.00;;
68653;SDS011;55636;51.108;13.622;2022-07-30T02:58:16;5.85;;;4.95;;
68653;SDS011;55636;51.108;13.622;2022-07-30T02:59:23;5.32;;;4.82;;
68653;SDS011;55636;51.108;13.622;2022-07-30T03:00:27;5.50;;;4.72;;
68653;SDS011;55636;51.108;13.622;2022-07-30T03:01:32;7.63;;;5.22;;
68653;SDS011;55636;51.108;13.622;2022-07-30T03:02:42;6.53;;;5.13;;
68653;SDS011;55636;51.108;13.622;2022-07-30T03:03:48;5.85;;;5.07;;
68653;SDS011;55636;51.108;13.622;2022-07-30T03:04:52;5.68;;;4.82;;
68653;SDS011;55636;51.108;13.622;2022-07-30T03:05:56;5.72;;;5.22;;
68653;SDS011;55636;51.108;13.622;2022-07-30T03:07:01;5.50;;;5.00;;
68653;SDS011;55636;51.108;13.622;2022-07-30T03:08:09;5.97;;;5.40;;
68653;SDS011;55636;51.108;13.622;2022-07-30T03:09:12;5.40;;;4.90;;
68653;SDS011;55636;51.108;13.622;2022-07-30T03:10:17;5.80;;;5.30;;
68653;SDS011;55636;51.108;13.622;2022-07-30T03:11:20;5.50;;;5.00;;
68653;SDS011;55636;51.108;13.622;2022-07-30T03:12:24;5.43;;;4.93;;
68653;SDS011;55636;51.108;13.622;2022-07-30T03:13:29;6.88;;;5.47;;
68653;SDS011;55636;51.108;13.622;2022-07-30T03:14:32;5.85;;;4.97;;
68653;SDS011;55636;51.108;13.622;2022-07-30T03:15:34;5.60;;;5.10;;
68653;SDS011;55636;51.108;13.622;2022-07-30T03:16:41;5.63;;;5.10;;
68653;SDS011;55636;51.108;13.622;2022-07-30T03:17:51;6.10;;;5.60;;
68653;SDS011;55636;51.108;13.622;2022-07-30T03:19:00;11.65;;;4.95;;
68653;SDS011;55636;51.108;13.622;2022-07-30T03:20:13;5.45;;;4.95;;
68653;SDS011;55636;51.108;13.622;2022-07-30T03:21:20;6.25;;;5.20;;
68653;SDS011;55636;51.108;13.622;2022-07-30T03:22:26;6.18;;;5.53;;
68653;SDS011;55636;51.108;13.622;2022-07-30T03:23:34;5.82;;;5.32;;
68653;SDS011;55636;51.108;13.622;2022-07-30T03:24:38;5.70;;;5.20;;
68653;SDS011;55636;51.108;13.622;2022-07-30T03:25:44;6.15;;;4.95;;
68653;SDS011;55636;51.108;13.622;2022-07-30T03:26:55;5.78;;;5.15;;
68653;SDS011;55636;51.108;13.622;2022-07-30T03:28:00;5.90;;;5.30;;
68653;SDS011;55636;51.108;13.622;2022-07-30T03:29:05;5.70;;;5.20;;
68653;SDS011;55636;51.108;13.622;2022-07-30T03:30:12;5.72;;;5.20;;
68653;SDS011;55636;51.108;13.622;2022-07-30T03:31:15;5.82;;;4.97;;
68653;SDS011;55636;51.108;13.622;2022-07-30T03:32:21;5.50;;;5.05;;
68653;SDS011;55636;51.108;13.622;2022-07-30T03:33:27;6.22;;;5.25;;
68653;SDS011;55636;51.108;13.622;2022-07-30T03:34:39;5.70;;;5.20;;
68653;SDS011;55636;51.108;13.622;2022-07-30T03:35:42;6.30;;;5.70;;
68653;SDS011;55636;51.108;13.622;2022-07-30T03:36:45;6.82;;;5.63;;
68653;SDS011;55636;51.108;13.622;2022-07-30T03:37:48;7.40;;;5.40;;
68653;SDS011;55636;51.108;13.622;2022-07-30T03:38:50;6.38;;;5.47;;
68653;SDS011;55636;51.108;13.622;2022-07-30T03:39:54;7.00;;;5.18;;
68653;SDS011;55636;51.108;13.622;2022-07-30T03:41:00;6.03;;;5.32;;
68653;SDS011;55636;51.108;13.622;2022-07-30T03:42:02;6.60;;;5.85;;
68653;SDS011;55636;51.108;13.622;2022-07-30T03:43:08;5.80;;;5.20;;
68653;SDS011;55636;51.108;13.622;2022-07-30T03:44:32;7.40;;;5.40;;
68653;SDS011;55636;51.108;13.622;2022-07-30T03:45:37;5.68;;;5.13;;
68653;SDS011;55636;51.108;13.622;2022-07-30T03:46:43;6.82;;;5.68;;
68653;SDS011;55636;51.108;13.622;2022-07-30T03:47:46;6.57;;;5.80;;
68653;SDS011;55636;51.108;13.622;2022-07-30T03:48:50;6.13;;;5.53;;
68653;SDS011;55636;51.108;13.622;2022-07-30T03:49:54;6.63;;;6.03;;
68653;SDS011;55636;51.108;13.622;2022-07-30T03:50:56;6.55;;;5.47;;
68653;SDS011;55636;51.108;13.622;2022-07-30T03:52:02;6.55;;;5.88;;
68653;SDS011;55636;51.108;13.622;2022-07-30T03:53:06;6.38;;;5.78;;
68653;SDS011;55636;51.108;13.622;2022-07-30T03:54:25;6.85;;;5.55;;
68653;SDS011;55636;51.108;13.622;2022-07-30T03:55:48;6.40;;;5.63;;
68653;SDS011;55636;51.108;13.622;2022-07-30T03:57:13;5.72;;;5.22;;
68653;SDS011;55636;51.108;13.622;2022-07-30T03:58:22;5.82;;;5.32;;
68653;SDS011;55636;51.108;13.622;2022-07-30T03:59:25;6.60;;;5.68;;
68653;SDS011;55636;51.108;13.622;2022-07-30T04:00:29;5.75;;;5.25;;
68653;SDS011;55636;51.108;13.622;2022-07-30T04:01:31;5.90;;;5.40;;
68653;SDS011;55636;51.108;13.622;2022-07-30T04:02:43;6.90;;;5.40;;
68653;SDS011;55636;51.108;13.622;2022-07-30T04:03:52;7.05;;;5.80;;
68653;SDS011;55636;51.108;13.622;2022-07-30T04:04:56;7.05;;;5.72;;
68653;SDS011;55636;51.108;13.622;2022-07-30T04:05:58;6.13;;;5.63;;
68653;SDS011;55636;51.108;13.622;2022-07-30T04:07:03;7.55;;;6.13;;
68653;SDS011;55636;51.108;13.622;2022-07-30T04:08:06;6.85;;;6.07;;
68653;SDS011;55636;51.108;13.622;2022-07-30T04:09:08;8.35;;;5.90;;
68653;SDS011;55636;51.108;13.622;2022-07-30T04:10:12;6.45;;;5.80;;
68653;SDS011;55636;51.108;13.622;2022-07-30T04:11:31;6.20;;;5.60;;
68653;SDS011;55636;51.108;13.622;2022-07-30T04:12:45;8.43;;;6.05;;
68653;SDS011;55636;51.108;13.622;2022-07-30T04:13:49;6.50;;;5.78;;
68653;SDS011;55636;51.108;13.622;2022-07-30T04:14:57;6.22;;;5.72;;
68653;SDS011;55636;51.108;13.622;2022-07-30T04:17:34;6.35;;;5.72;;
68653;SDS011;55636;51.108;13.622;2022-07-30T04:18:39;6.45;;;5.85;;
68653;SDS011;55636;51.108;13.622;2022-07-30T04:19:47;7.22;;;6.22;;
68653;SDS011;55636;51.108;13.622;2022-07-30T04:20:53;6.88;;;6.00;;
68653;SDS011;55636;51.108;13.622;2022-07-30T04:21:56;6.78;;;6.15;;
68653;SDS011;55636;51.108;13.622;2022-07-30T04:23:01;6.97;;;6.28;;
68653;SDS011;55636;51.108;13.622;2022-07-30T04:24:04;6.40;;;5.80;;
68653;SDS011;55636;51.108;13.622;2022-07-30T04:25:08;6.35;;;5.75;;
68653;SDS011;55636;51.108;13.622;2022-07-30T04:26:25;6.47;;;5.82;;
68653;SDS011;55636;51.108;13.622;2022-07-30T04:27:28;6.38;;;5.78;;
68653;SDS011;55636;51.108;13.622;2022-07-30T04:28:34;6.45;;;5.82;;
68653;SDS011;55636;51.108;13.622;2022-07-30T04:29:37;6.38;;;5.78;;
68653;SDS011;55636;51.108;13.622;2022-07-30T04:30:40;6.20;;;5.60;;
68653;SDS011;55636;51.108;13.622;2022-07-30T04:31:42;6.75;;;6.15;;
68653;SDS011;55636;51.108;13.622;2022-07-30T04:33:05;7.07;;;5.75;;
68653;SDS011;55636;51.108;13.622;2022-07-30T04:34:23;6.50;;;5.88;;
68653;SDS011;55636;51.108;13.622;2022-07-30T04:35:28;6.75;;;6.00;;
68653;SDS011;55636;51.108;13.622;2022-07-30T04:36:59;6.50;;;5.60;;
68653;SDS011;55636;51.108;13.622;2022-07-30T04:38:04;9.13;;;6.60;;
68653;SDS011;55636;51.108;13.622;2022-07-30T04:39:06;6.80;;;5.75;;
68653;SDS011;55636;51.108;13.622;2022-07-30T04:40:09;7.18;;;6.30;;
68653;SDS011;55636;51.108;13.622;2022-07-30T04:41:12;9.15;;;6.15;;
68653;SDS011;55636;51.108;13.622;2022-07-30T04:42:37;6.47;;;5.88;;
68653;SDS011;55636;51.108;13.622;2022-07-30T04:43:45;6.75;;;6.05;;
68653;SDS011;55636;51.108;13.622;2022-07-30T04:44:47;7.15;;;6.35;;
68653;SDS011;55636;51.108;13.622;2022-07-30T04:46:02;6.18;;;5.43;;
68653;SDS011;55636;51.108;13.622;2022-07-30T04:47:04;7.22;;;5.63;;
68653;SDS011;55636;51.108;13.622;2022-07-30T04:48:11;6.72;;;5.97;;
68653;SDS011;55636;51.108;13.622;2022-07-30T04:49:32;7.65;;;5.60;;
68653;SDS011;55636;51.108;13.622;2022-07-30T04:50:37;8.35;;;6.40;;
68653;SDS011;55636;51.108;13.622;2022-07-30T04:51:52;6.47;;;5.93;;
68653;SDS011;55636;51.108;13.622;2022-07-30T04:52:55;6.35;;;5.75;;
68653;SDS011;55636;51.108;13.622;2022-07-30T04:54:02;6.30;;;5.68;;
68653;SDS011;55636;51.108;13.622;2022-07-30T04:55:07;6.20;;;5.70;;
68653;SDS011;55636;51.108;13.622;2022-07-30T04:56:12;6.50;;;5.90;;
68653;SDS011;55636;51.108;13.622;2022-07-30T04:57:17;6.20;;;5.60;;
68653;SDS011;55636;51.108;13.622;2022-07-30T04:58:20;6.28;;;5.68;;
68653;SDS011;55636;51.108;13.622;2022-07-30T04:59:28;6.82;;;5.97;;
68653;SDS011;55636;51.108;13.622;2022-07-30T05:00:33;7.40;;;5.90;;
68653;SDS011;55636;51.108;13.622;2022-07-30T05:01:45;6.60;;;5.70;;
68653;SDS011;55636;51.108;13.622;2022-07-30T05:02:53;6.15;;;5.55;;
68653;SDS011;55636;51.108;13.622;2022-07-30T05:03:57;6.20;;;5.60;;
68653;SDS011;55636;51.108;13.622;2022-07-30T05:05:01;6.45;;;5.70;;
68653;SDS011;55636;51.108;13.622;2022-07-30T05:06:04;7.20;;;5.72;;
68653;SDS011;55636;51.108;13.622;2022-07-30T05:07:10;6.70;;;6.00;;
68653;SDS011;55636;51.108;13.622;2022-07-30T05:08:15;7.30;;;5.65;;
68653;SDS011;55636;51.108;13.622;2022-07-30T05:09:18;6.53;;;5.90;;
68653;SDS011;55636;51.108;13.622;2022-07-30T05:10:20;6.10;;;5.50;;
68653;SDS011;55636;51.108;13.622;2022-07-30T05:11:23;6.63;;;5.93;;
68653;SDS011;55636;51.108;13.622;2022-07-30T05:12:35;6.63;;;5.60;;
68653;SDS011;55636;51.108;13.622;2022-07-30T05:13:41;6.25;;;5.63;;
68653;SDS011;55636;51.108;13.622;2022-07-30T05:14:47;5.93;;;5.43;;
68653;SDS011;55636;51.108;13.622;2022-07-30T05:15:54;6.13;;;5.53;;
68653;SDS011;55636;51.108;13.622;2022-07-30T05:16:58;6.28;;;5.68;;
68653;SDS011;55636;51.108;13.622;2022-07-30T05:18:05;5.63;;;5.13;;
68653;SDS011;55636;51.108;13.622;2022-07-30T05:19:12;5.95;;;5.35;;
68653;SDS011;55636;51.108;13.622;2022-07-30T05:20:15;6.47;;;5.82;;
68653;SDS011;55636;51.108;13.622;2022-07-30T05:21:33;5.70;;;5.20;;
68653;SDS011;55636;51.108;13.622;2022-07-30T05:22:35;6.32;;;5.60;;
68653;SDS011;55636;51.108;13.622;2022-07-30T05:23:44;6.15;;;5.45;;
68653;SDS011;55636;51.108;13.622;2022-07-30T05:24:57;8.88;;;5.55;;
68653;SDS011;55636;51.108;13.622;2022-07-30T05:25:59;6.10;;;5.50;;
68653;SDS011;55636;51.108;13.622;2022-07-30T05:27:11;10.13;;;5.60;;
68653;SDS011;55636;51.108;13.622;2022-07-30T05:28:14;7.18;;;5.40;;
68653;SDS011;55636;51.108;13.622;2022-07-30T05:29:17;10.23;;;5.93;;
68653;SDS011;55636;51.108;13.622;2022-07-30T05:30:27;6.07;;;5.47;;
68653;SDS011;55636;51.108;13.622;2022-07-30T05:31:33;5.90;;;5.25;;
68653;SDS011;55636;51.108;13.622;2022-07-30T05:32:36;7.43;;;5.50;;
68653;SDS011;55636;51.108;13.622;2022-07-30T05:33:39;6.75;;;5.75;;
68653;SDS011;55636;51.108;13.622;2022-07-30T05:34:47;6.45;;;5.75;;
68653;SDS011;55636;51.108;13.622;2022-07-30T05:35:51;6.00;;;5.50;;
68653;SDS011;55636;51.108;13.622;2022-07-30T05:36:54;7.70;;;5.25;;
68653;SDS011;55636;51.108;13.622;2022-07-30T05:37:58;6.13;;;5.47;;
68653;SDS011;55636;51.108;13.622;2022-07-30T05:39:05;6.57;;;5.97;;
68653;SDS011;55636;51.108;13.622;2022-07-30T05:40:23;7.45;;;5.70;;
68653;SDS011;55636;51.108;13.622;2022-07-30T05:41:38;6.03;;;5.47;;
68653;SDS011;55636;51.108;13.622;2022-07-30T05:42:51;5.75;;;5.10;;
68653;SDS011;55636;51.108;13.622;2022-07-30T05:43:53;7.20;;;5.38;;
68653;SDS011;55636;51.108;13.622;2022-07-30T05:44:57;6.03;;;5.43;;
68653;SDS011;55636;51.108;13.622;2022-07-30T05:46:01;6.15;;;5.57;;
68653;SDS011;55636;51.108;13.622;2022-07-30T05:47:04;6.43;;;5.80;;
68653;SDS011;55636;51.108;13.622;2022-07-30T05:48:06;7.18;;;6.20;;
68653;SDS011;55636;51.108;13.622;2022-07-30T05:49:09;7.10;;;5.53;;
68653;SDS011;55636;51.108;13.622;2022-07-30T05:50:12;8.57;;;5.85;;
68653;SDS011;55636;51.108;13.622;2022-07-30T05:51:15;7.53;;;5.72;;
68653;SDS011;55636;51.108;13.622;2022-07-30T05:52:18;7.53;;;5.60;;
68653;SDS011;55636;51.108;13.622;2022-07-30T05:53:20;7.13;;;5.45;;
68653;SDS011;55636;51.108;13.622;2022-07-30T05:54:48;6.03;;;5.53;;
68653;SDS011;55636;51.108;13.622;2022-07-30T05:56:09;6.45;;;5.63;;
68653;SDS011;55636;51.108;13.622;2022-07-30T05:57:26;6.55;;;5.40;;
68653;SDS011;55636;51.108;13.622;2022-07-30T05:58:28;6.53;;;5.55;;
68653;SDS011;55636;51.108;13.622;2022-07-30T05:59:31;6.63;;;6.03;;
68653;SDS011;55636;51.108;13.622;2022-07-30T06:00:42;7.93;;;6.32;;
68653;SDS011;55636;51.108;13.622;2022-07-30T06:01:44;8.38;;;6.10;;
68653;SDS011;55636;51.108;13.622;2022-07-30T06:03:01;6.43;;;5.72;;
68653;SDS011;55636;51.108;13.622;2022-07-30T06:04:23;6.38;;;5.78;;
68653;SDS011;55636;51.108;13.622;2022-07-30T06:05:32;6.80;;;6.18;;
68653;SDS011;55636;51.108;13.622;2022-07-30T06:06:35;7.45;;;5.85;;
68653;SDS011;55636;51.108;13.622;2022-07-30T06:07:38;7.00;;;5.78;;
68653;SDS011;55636;51.108;13.622;2022-07-30T06:08:41;6.72;;;5.75;;
68653;SDS011;55636;51.108;13.622;2022-07-30T06:09:45;9.43;;;6.38;;
68653;SDS011;55636;51.108;13.622;2022-07-30T06:10:47;6.45;;;5.78;;
68653;SDS011;55636;51.108;13.622;2022-07-30T06:11:50;6.22;;;5.63;;
68653;SDS011;55636;51.108;13.622;2022-07-30T06:13:00;6.35;;;5.75;;
68653;SDS011;55636;51.108;13.622;2022-07-30T06:14:02;7.53;;;6.25;;
68653;SDS011;55636;51.108;13.622;2022-07-30T06:15:04;6.63;;;5.90;;
68653;SDS011;55636;51.108;13.622;2022-07-30T06:16:11;7.40;;;6.07;;
68653;SDS011;55636;51.108;13.622;2022-07-30T06:17:13;6.30;;;5.70;;
68653;SDS011;55636;51.108;13.622;2022-07-30T06:18:32;7.03;;;5.78;;
68653;SDS011;55636;51.108;13.622;2022-07-30T06:19:40;8.98;;;6.20;;
68653;SDS011;55636;51.108;13.622;2022-07-30T06:20:42;9.18;;;6.50;;
68653;SDS011;55636;51.108;13.622;2022-07-30T06:22:04;7.75;;;6.82;;
68653;SDS011;55636;51.108;13.622;2022-07-30T06:23:13;6.78;;;6.07;;
68653;SDS011;55636;51.108;13.622;2022-07-30T06:24:36;6.43;;;5.82;;
68653;SDS011;55636;51.108;13.622;2022-07-30T06:25:44;8.43;;;6.20;;
68653;SDS011;55636;51.108;13.622;2022-07-30T06:26:47;7.82;;;6.38;;
68653;SDS011;55636;51.108;13.622;2022-07-30T06:27:53;8.70;;;6.80;;
68653;SDS011;55636;51.108;13.622;2022-07-30T06:28:56;7.82;;;6.40;;
68653;SDS011;55636;51.108;13.622;2022-07-30T06:30:04;7.25;;;6.18;;
68653;SDS011;55636;51.108;13.622;2022-07-30T06:31:10;6.93;;;6.32;;
68653;SDS011;55636;51.108;13.622;2022-07-30T06:32:13;7.45;;;6.65;;
68653;SDS011;55636;51.108;13.622;2022-07-30T06:33:15;7.45;;;6.32;;
68653;SDS011;55636;51.108;13.622;2022-07-30T06:34:17;6.68;;;6.05;;
68653;SDS011;55636;51.108;13.622;2022-07-30T06:35:20;7.13;;;6.43;;
68653;SDS011;55636;51.108;13.622;2022-07-30T06:36:23;8.45;;;7.07;;